Time;durP1;ratioP1;P1;durP2;ratioP2;P2;SDS_P1;SDS_P2;PMS_P1;PMS_P2;Temp;Humidity;BMP_temperature;BMP_pressure;BME280_temperature;BME280_humidity;BME280_pressure;Samples;Min_cycle;Max_cycle;Signal;HPM_P1;HPM_P2
2022/06/05 00:01:45;;;;;;;47.88;36.22;;;;;;;;;;6184955;23;20421;-80
2022/06/05 00:04:30;;;;;;;40.78;29.73;;;;;;;;;;6184426;23;20005;-79
2022/06/05 00:06:59;;;;;;;29.60;22.00;;;;;;;;;;6184737;23;20001;-80
2022/06/05 00:09:31;;;;;;;16.88;13.70;;;;;;;;;;6184457;23;20140;-80
2022/06/05 00:12:00;;;;;;;14.05;11.65;;;;;;;;;;6184662;23;20110;-79
2022/06/05 00:14:26;;;;;;;14.90;12.63;;;;;;;;;;6184139;23;20001;-80
2022/06/05 00:16:52;;;;;;;13.35;11.93;;;;;;;;;;6184607;23;20005;-80
2022/06/05 00:19:18;;;;;;;17.65;12.50;;;;;;;;;;6186040;23;20001;-80
2022/06/05 00:21:44;;;;;;;21.00;13.57;;;;;;;;;;6186378;23;20009;-80
2022/06/05 00:24:10;;;;;;;15.13;12.25;;;;;;;;;;6186432;23;20016;-79
2022/06/05 00:26:40;;;;;;;17.75;12.90;;;;;;;;;;6186226;23;20012;-79
2022/06/05 00:29:25;;;;;;;17.80;13.20;;;;;;;;;;6186398;23;20001;-79
2022/06/05 00:31:51;;;;;;;13.65;12.32;;;;;;;;;;6186251;23;20020;-80
2022/06/05 00:34:19;;;;;;;15.23;12.40;;;;;;;;;;6185876;23;20056;-79
2022/06/05 00:36:45;;;;;;;17.00;13.50;;;;;;;;;;6186090;23;20016;-79
2022/06/05 00:39:15;;;;;;;16.67;12.65;;;;;;;;;;6186267;23;20005;-79
2022/06/05 00:41:41;;;;;;;16.02;13.20;;;;;;;;;;6186873;23;20007;-79
2022/06/05 00:44:09;;;;;;;17.25;12.23;;;;;;;;;;6186144;23;20337;-79
2022/06/05 00:46:37;;;;;;;19.75;16.15;;;;;;;;;;6186055;23;20005;-80
2022/06/05 00:49:04;;;;;;;16.77;13.70;;;;;;;;;;6186194;23;20009;-79
2022/06/05 00:51:31;;;;;;;19.70;13.93;;;;;;;;;;6185720;23;20009;-79
2022/06/05 00:53:57;;;;;;;13.30;11.88;;;;;;;;;;6186189;23;20039;-79
2022/06/05 00:56:23;;;;;;;17.23;12.57;;;;;;;;;;6159830;23;20009;-79
2022/06/05 00:58:49;;;;;;;30.85;21.58;;;;;;;;;;6186167;23;19997;-79
2022/06/05 01:01:15;;;;;;;20.40;12.65;;;;;;;;;;6184179;23;20436;-80
2022/06/05 01:03:41;;;;;;;16.05;12.38;;;;;;;;;;6185978;23;20060;-79
2022/06/05 01:06:07;;;;;;;14.90;12.73;;;;;;;;;;6159723;23;20004;-79
2022/06/05 01:08:33;;;;;;;14.10;11.82;;;;;;;;;;6185910;23;20083;-79
2022/06/05 01:11:09;;;;;;;14.05;11.15;;;;;;;;;;6185934;23;20091;-79
2022/06/05 01:13:54;;;;;;;13.20;11.05;;;;;;;;;;6184232;23;20048;-79
2022/06/05 01:16:39;;;;;;;12.43;11.20;;;;;;;;;;6185938;23;20496;-79
2022/06/05 01:19:23;;;;;;;14.35;12.90;;;;;;;;;;6185936;23;20041;-80
2022/06/05 01:21:51;;;;;;;;;;;;;;;;;;6186387;23;20031;-79
2022/06/05 01:24:17;;;;;;;16.85;12.20;;;;;;;;;;6185773;23;20325;-79
2022/06/05 01:26:43;;;;;;;13.85;12.15;;;;;;;;;;6185609;23;20005;-79
2022/06/05 01:29:15;;;;;;;16.73;12.35;;;;;;;;;;6185585;23;20008;-79
2022/06/05 01:31:42;;;;;;;16.40;12.07;;;;;;;;;;6185393;23;20005;-79
2022/06/05 01:34:15;;;;;;;17.15;12.27;;;;;;;;;;6185875;23;20056;-79
2022/06/05 01:36:55;;;;;;;17.83;12.25;;;;;;;;;;6185811;23;20011;-79
2022/06/05 01:39:28;;;;;;;19.42;13.48;;;;;;;;;;6159438;23;20088;-79
2022/06/05 01:41:56;;;;;;;17.58;13.27;;;;;;;;;;6185871;23;20083;-79
2022/06/05 01:44:32;;;;;;;15.20;13.50;;;;;;;;;;6185606;23;20009;-79
2022/06/05 01:47:00;;;;;;;14.13;12.50;;;;;;;;;;6185370;23;20033;-80
2022/06/05 01:49:30;;;;;;;20.08;12.68;;;;;;;;;;6185509;23;20009;-79
2022/06/05 01:52:15;;;;;;;13.45;12.18;;;;;;;;;;6185074;23;20009;-79
2022/06/05 01:55:02;;;;;;;13.90;12.50;;;;;;;;;;6158852;23;20004;-79
2022/06/05 01:57:30;;;;;;;15.73;12.50;;;;;;;;;;6185373;23;20336;-79
2022/06/05 02:00:15;;;;;;;15.43;11.90;;;;;;;;;;6185436;23;20037;-79
2022/06/05 02:03:00;;;;;;;17.73;13.05;;;;;;;;;;6185334;23;20011;-79
2022/06/05 02:05:29;;;;;;;17.80;14.88;;;;;;;;;;6185413;23;20004;-78
2022/06/05 02:07:58;;;;;;;12.80;11.60;;;;;;;;;;6185038;23;20001;-78
2022/06/05 02:10:27;;;;;;;13.38;12.13;;;;;;;;;;6185479;23;20005;-79
2022/06/05 02:12:54;;;;;;;14.68;13.00;;;;;;;;;;6185190;23;20377;-79
2022/06/05 02:15:21;;;;;;;13.65;12.02;;;;;;;;;;6185865;23;20495;-79
2022/06/05 02:17:47;;;;;;;16.67;12.18;;;;;;;;;;6185066;23;20079;-79
2022/06/05 02:20:14;;;;;;;14.70;11.90;;;;;;;;;;6185501;23;20433;-79
2022/06/05 02:22:45;;;;;;;13.25;11.95;;;;;;;;;;6158903;23;20015;-79
2022/06/05 02:25:12;;;;;;;14.20;11.25;;;;;;;;;;6185402;23;20005;-79
2022/06/05 02:27:38;;;;;;;12.98;11.55;;;;;;;;;;6185300;23;20109;-80
2022/06/05 02:30:06;;;;;;;13.98;11.23;;;;;;;;;;6185040;23;20011;-79
2022/06/05 02:32:39;;;;;;;12.00;10.82;;;;;;;;;;6184943;23;20017;-79
2022/06/05 02:35:05;;;;;;;15.18;12.88;;;;;;;;;;6185572;23;20001;-79
2022/06/05 02:37:47;;;;;;;11.90;10.60;;;;;;;;;;6185027;23;20009;-79
2022/06/05 02:40:32;;;;;;;14.70;11.45;;;;;;;;;;6185198;23;20005;-79
2022/06/05 02:42:58;;;;;;;19.73;11.95;;;;;;;;;;6184571;23;20333;-79
2022/06/05 02:45:28;;;;;;;15.75;12.02;;;;;;;;;;6158238;23;20013;-80
2022/06/05 02:47:57;;;;;;;15.15;12.63;;;;;;;;;;6184940;23;20010;-80
2022/06/05 02:50:28;;;;;;;12.63;11.32;;;;;;;;;;6184865;23;20003;-80
2022/06/05 02:53:00;;;;;;;13.85;12.07;;;;;;;;;;6184679;23;20019;-79
2022/06/05 02:55:26;;;;;;;14.10;12.52;;;;;;;;;;6184982;23;20009;-79
2022/06/05 02:57:52;;;;;;;14.75;11.35;;;;;;;;;;6158455;23;20084;-79
2022/06/05 03:00:20;;;;;;;15.48;12.55;;;;;;;;;;6184754;23;20506;-79
2022/06/05 03:05:31;;;;;;;13.63;11.38;;;;;;;;;;6185080;23;20020;-79
2022/06/05 03:07:57;;;;;;;12.95;11.75;;;;;;;;;;6184643;23;20009;-79
2022/06/05 03:10:24;;;;;;;15.82;11.15;;;;;;;;;;6184885;23;20009;-79
2022/06/05 03:12:50;;;;;;;12.35;11.15;;;;;;;;;;6184505;23;20040;-79
2022/06/05 03:15:16;;;;;;;13.05;10.85;;;;;;;;;;6184692;23;20039;-79
2022/06/05 03:17:43;;;;;;;12.68;11.38;;;;;;;;;;6184840;23;20039;-79
2022/06/05 03:20:10;;;;;;;13.40;12.00;;;;;;;;;;6184648;23;20036;-79
2022/06/05 03:22:36;;;;;;;13.82;11.75;;;;;;;;;;6185104;23;20029;-79
2022/06/05 03:25:03;;;;;;;12.52;11.27;;;;;;;;;;6184876;23;20004;-79
2022/06/05 03:27:30;;;;;;;14.45;12.82;;;;;;;;;;6185213;23;20015;-79
2022/06/05 03:29:56;;;;;;;14.20;12.32;;;;;;;;;;6184562;23;19997;-79
2022/06/05 03:32:23;;;;;;;13.30;11.90;;;;;;;;;;6158325;23;20392;-79
2022/06/05 03:34:49;;;;;;;14.65;11.60;;;;;;;;;;6184991;23;20385;-79
2022/06/05 03:37:15;;;;;;;15.90;11.95;;;;;;;;;;6184487;23;20433;-80
2022/06/05 03:39:42;;;;;;;18.05;12.25;;;;;;;;;;6184761;23;20084;-79
2022/06/05 03:42:08;;;;;;;12.90;11.57;;;;;;;;;;6184471;23;20057;-79
2022/06/05 03:44:37;;;;;;;16.83;12.02;;;;;;;;;;6184711;23;20005;-79
2022/06/05 03:47:04;;;;;;;16.75;15.10;;;;;;;;;;6184438;23;20004;-79
2022/06/05 03:49:31;;;;;;;18.83;16.80;;;;;;;;;;6184594;23;20429;-80
2022/06/05 03:51:57;;;;;;;14.20;11.80;;;;;;;;;;6184257;23;20056;-80
2022/06/05 03:54:23;;;;;;;19.58;17.50;;;;;;;;;;6159451;23;20009;-79
2022/06/05 03:56:49;;;;;;;17.88;16.13;;;;;;;;;;6186721;23;20448;-79
2022/06/05 03:59:16;;;;;;;14.15;12.75;;;;;;;;;;6186526;23;20060;-79
2022/06/05 04:01:42;;;;;;;14.90;12.55;;;;;;;;;;6186840;23;20008;-79
2022/06/05 04:04:08;;;;;;;17.58;12.95;;;;;;;;;;6160499;23;20008;-80
2022/06/05 04:06:34;;;;;;;13.65;12.32;;;;;;;;;;6186657;23;20432;-79
2022/06/05 04:09:03;;;;;;;15.15;11.95;;;;;;;;;;6186505;23;20041;-79
2022/06/05 04:11:30;;;;;;;13.02;11.73;;;;;;;;;;6186642;23;20063;-79
2022/06/05 04:13:56;;;;;;;14.90;12.13;;;;;;;;;;6186521;23;20012;-79
2022/06/05 04:16:23;;;;;;;16.85;14.13;;;;;;;;;;6186276;23;20012;-81
2022/06/05 04:18:50;;;;;;;15.45;11.98;;;;;;;;;;6186439;23;20004;-80
2022/06/05 04:21:19;;;;;;;19.20;17.15;;;;;;;;;;6186354;23;20080;-80
2022/06/05 04:23:46;;;;;;;15.80;14.15;;;;;;;;;;6187157;23;20001;-81
2022/06/05 04:26:15;;;;;;;20.17;18.10;;;;;;;;;;6188101;23;20083;-82
2022/06/05 04:28:41;;;;;;;19.60;16.98;;;;;;;;;;6187625;23;20041;-81
2022/06/05 04:31:26;;;;;;;23.60;21.38;;;;;;;;;;6187601;23;19997;-81
2022/06/05 04:33:53;;;;;;;23.45;20.98;;;;;;;;;;6161228;23;20021;-82
2022/06/05 04:36:19;;;;;;;16.55;14.38;;;;;;;;;;6188343;23;20024;-81
2022/06/05 04:38:46;;;;;;;15.25;13.75;;;;;;;;;;6187131;23;20000;-79
2022/06/05 04:41:12;;;;;;;18.48;16.67;;;;;;;;;;6186149;23;20493;-79
2022/06/05 04:43:39;;;;;;;24.77;22.20;;;;;;;;;;6186831;23;20001;-80
2022/06/05 04:46:05;;;;;;;21.02;18.83;;;;;;;;;;6185905;23;20425;-80
2022/06/05 04:48:32;;;;;;;15.48;12.73;;;;;;;;;;6186279;23;20012;-80
2022/06/05 04:50:58;;;;;;;13.32;11.82;;;;;;;;;;6186174;23;20008;-80
2022/06/05 04:53:24;;;;;;;13.68;12.30;;;;;;;;;;6186744;23;20052;-81
2022/06/05 04:55:51;;;;;;;12.50;11.30;;;;;;;;;;6186873;23;20084;-80
2022/06/05 04:58:17;;;;;;;14.57;11.60;;;;;;;;;;6186992;23;20027;-80
2022/06/05 05:00:43;;;;;;;15.80;12.93;;;;;;;;;;6186952;23;20005;-82
2022/06/05 05:03:09;;;;;;;16.10;12.00;;;;;;;;;;6187105;23;20441;-81
2022/06/05 05:05:35;;;;;;;19.20;14.15;;;;;;;;;;6160268;23;20306;-80
2022/06/05 05:08:02;;;;;;;21.77;19.63;;;;;;;;;;6187009;23;20021;-82
2022/06/05 05:10:28;;;;;;;21.67;19.52;;;;;;;;;;6186730;23;20072;-80
2022/06/05 05:12:58;;;;;;;47.03;42.28;;;;;;;;;;6185983;23;20092;-80
2022/06/05 05:15:24;;;;;;;37.53;33.70;;;;;;;;;;6186118;23;20031;-80
2022/06/05 05:17:50;;;;;;;24.10;21.60;;;;;;;;;;6186114;23;20001;-80
2022/06/05 05:20:16;;;;;;;32.47;29.00;;;;;;;;;;6185531;23;20029;-80
2022/06/05 05:22:42;;;;;;;13.95;12.57;;;;;;;;;;6185933;23;20001;-80
2022/06/05 05:25:10;;;;;;;12.60;11.30;;;;;;;;;;6185578;23;20001;-80
2022/06/05 05:27:37;;;;;;;12.02;10.90;;;;;;;;;;6185822;23;20013;-80
2022/06/05 05:30:04;;;;;;;12.43;11.15;;;;;;;;;;6185583;23;20014;-81
2022/06/05 05:32:30;;;;;;;11.70;10.60;;;;;;;;;;6185739;23;20024;-80
2022/06/05 05:34:56;;;;;;;12.55;11.05;;;;;;;;;;6186026;23;20087;-80
2022/06/05 05:37:22;;;;;;;17.48;15.82;;;;;;;;;;6185864;23;20005;-82
2022/06/05 05:42:33;;;;;;;15.27;11.90;;;;;;;;;;6186016;23;20015;-80
2022/06/05 05:45:00;;;;;;;11.98;10.48;;;;;;;;;;6185640;23;20029;-82
2022/06/05 05:47:28;;;;;;;12.55;11.25;;;;;;;;;;6186390;23;20009;-81
2022/06/05 05:49:56;;;;;;;12.82;11.52;;;;;;;;;;6185963;23;20040;-81
2022/06/05 05:52:23;;;;;;;12.18;10.98;;;;;;;;;;6186645;23;20040;-81
2022/06/05 05:54:49;;;;;;;11.43;10.30;;;;;;;;;;6186171;23;20001;-80
2022/06/05 05:57:16;;;;;;;11.85;10.70;;;;;;;;;;6186435;23;20005;-80
2022/06/05 05:59:43;;;;;;;11.73;10.73;;;;;;;;;;6186676;23;20005;-81
2022/06/05 06:02:12;;;;;;;13.00;11.75;;;;;;;;;;6185977;23;20004;-82
2022/06/05 06:04:39;;;;;;;12.25;11.15;;;;;;;;;;6185720;23;20008;-81
2022/06/05 06:07:05;;;;;;;15.73;11.60;;;;;;;;;;6184926;23;20005;-81
2022/06/05 06:09:33;;;;;;;12.10;10.90;;;;;;;;;;6185337;23;20072;-81
2022/06/05 06:11:59;;;;;;;34.03;12.52;;;;;;;;;;6185536;23;20009;-82
2022/06/05 06:14:25;;;;;;;11.95;10.75;;;;;;;;;;6185026;23;20005;-80
2022/06/05 06:16:51;;;;;;;30.88;12.75;;;;;;;;;;6185015;23;20009;-81
2022/06/05 06:19:17;;;;;;;13.43;11.05;;;;;;;;;;6185250;23;20009;-81
2022/06/05 06:21:44;;;;;;;12.15;10.77;;;;;;;;;;6185422;23;20048;-81
2022/06/05 06:24:13;;;;;;;12.10;10.85;;;;;;;;;;6184719;23;20059;-80
2022/06/05 06:26:40;;;;;;;11.70;10.60;;;;;;;;;;6185299;23;20071;-81
2022/06/05 06:29:07;;;;;;;12.00;10.52;;;;;;;;;;6184944;23;20036;-80
2022/06/05 06:31:34;;;;;;;11.80;9.48;;;;;;;;;;6185106;23;20004;-80
2022/06/05 06:34:01;;;;;;;13.93;10.40;;;;;;;;;;6184852;23;20005;-77
2022/06/05 06:36:28;;;;;;;13.02;11.15;;;;;;;;;;6185544;23;20013;-81
2022/06/05 06:38:54;;;;;;;11.45;10.25;;;;;;;;;;6184886;23;20005;-81
2022/06/05 06:41:21;;;;;;;14.80;9.82;;;;;;;;;;6184964;23;20001;-79
2022/06/05 06:43:48;;;;;;;11.98;9.77;;;;;;;;;;6185181;23;20005;-81
2022/06/05 06:46:15;;;;;;;13.40;9.80;;;;;;;;;;6184754;23;20015;-80
2022/06/05 06:48:41;;;;;;;12.32;9.77;;;;;;;;;;6185069;23;20005;-80
2022/06/05 06:51:08;;;;;;;11.27;9.55;;;;;;;;;;6183223;23;20001;-80
2022/06/05 06:53:34;;;;;;;12.73;9.30;;;;;;;;;;6155358;23;20019;-79
2022/06/05 06:56:06;;;;;;;11.73;8.98;;;;;;;;;;6154939;23;20005;-80
2022/06/05 06:58:32;;;;;;;10.55;9.15;;;;;;;;;;6155113;23;20001;-80
2022/06/05 07:00:58;;;;;;;10.93;9.07;;;;;;;;;;6154855;23;20005;-81
2022/06/05 07:03:24;;;;;;;11.05;10.00;;;;;;;;;;6155503;23;20061;-81
2022/06/05 07:05:50;;;;;;;16.38;9.65;;;;;;;;;;6155180;23;20036;-78
2022/06/05 07:08:16;;;;;;;10.63;9.57;;;;;;;;;;6154952;23;20073;-81
2022/06/05 07:10:44;;;;;;;12.20;10.00;;;;;;;;;;6155195;23;20001;-81
2022/06/05 07:13:10;;;;;;;11.98;9.65;;;;;;;;;;6154627;23;20013;-79
2022/06/05 07:15:36;;;;;;;12.00;9.82;;;;;;;;;;6154942;23;20012;-79
2022/06/05 07:18:06;;;;;;;11.45;9.13;;;;;;;;;;6154625;23;20008;-77
2022/06/05 07:20:36;;;;;;;9.65;7.75;;;;;;;;;;6155953;23;20001;-80
2022/06/05 07:23:02;;;;;;;14.15;8.73;;;;;;;;;;6155879;23;20012;-78
2022/06/05 07:25:29;;;;;;;12.32;9.18;;;;;;;;;;6154584;23;20081;-80
2022/06/05 07:27:55;;;;;;;9.60;8.25;;;;;;;;;;6154368;23;20001;-78
2022/06/05 07:30:21;;;;;;;11.75;7.93;;;;;;;;;;6154751;23;20485;-80
2022/06/05 07:32:48;;;;;;;9.13;8.20;;;;;;;;;;6154787;23;20136;-81
2022/06/05 07:35:15;;;;;;;9.20;8.27;;;;;;;;;;6155091;23;20017;-81
2022/06/05 07:37:41;;;;;;;11.20;8.55;;;;;;;;;;6153388;23;20014;-80
2022/06/05 07:40:08;;;;;;;10.02;8.50;;;;;;;;;;6154943;23;20002;-78
2022/06/05 07:42:38;;;;;;;13.10;9.07;;;;;;;;;;6154393;23;20044;-79
2022/06/05 07:45:04;;;;;;;11.70;10.30;;;;;;;;;;6154563;23;20031;-79
2022/06/05 07:47:30;;;;;;;11.60;9.38;;;;;;;;;;6155139;23;20006;-80
2022/06/05 07:49:57;;;;;;;10.98;8.65;;;;;;;;;;6154672;23;20002;-79
2022/06/05 07:55:08;;;;;;;9.63;8.60;;;;;;;;;;6184418;23;20092;-78
2022/06/05 07:57:34;;;;;;;10.23;9.18;;;;;;;;;;6184323;23;20005;-79
2022/06/05 08:00:00;;;;;;;9.65;8.65;;;;;;;;;;6184284;23;20084;-78
2022/06/05 08:02:28;;;;;;;9.55;8.40;;;;;;;;;;6184721;23;20004;-79
2022/06/05 08:04:55;;;;;;;9.75;8.63;;;;;;;;;;6184143;23;20005;-81
2022/06/05 08:07:24;;;;;;;10.73;9.63;;;;;;;;;;6184406;23;20431;-79
2022/06/05 08:09:52;;;;;;;10.90;9.73;;;;;;;;;;6184086;23;20318;-77
2022/06/05 08:12:19;;;;;;;11.27;9.30;;;;;;;;;;6184392;23;20009;-80
2022/06/05 08:14:48;;;;;;;12.38;9.75;;;;;;;;;;6184135;23;20001;-78
2022/06/05 08:17:19;;;;;;;10.98;9.63;;;;;;;;;;6184065;23;20045;-78
2022/06/05 08:19:45;;;;;;;11.38;9.32;;;;;;;;;;6183855;23;20009;-79
2022/06/05 08:22:16;;;;;;;10.95;9.80;;;;;;;;;;6184358;23;21109;-81
2022/06/05 08:24:42;;;;;;;10.40;9.35;;;;;;;;;;6184131;23;20001;-80
2022/06/05 08:27:10;;;;;;;11.88;8.75;;;;;;;;;;6184583;23;20009;-78
2022/06/05 08:29:36;;;;;;;9.38;8.40;;;;;;;;;;6184237;23;20008;-77
2022/06/05 08:32:02;;;;;;;10.88;9.05;;;;;;;;;;6184232;23;20009;-78
2022/06/05 08:34:28;;;;;;;10.07;8.05;;;;;;;;;;6184366;23;20060;-78
2022/06/05 08:42:24;;;;;;;11.50;8.88;;;;;;;;;;6185812;23;20016;-80
2022/06/05 08:44:53;;;;;;;10.02;7.90;;;;;;;;;;6186207;23;20005;-80
2022/06/05 08:47:26;;;;;;;11.82;8.77;;;;;;;;;;6186458;23;20421;-80
2022/06/05 08:50:10;;;;;;;12.93;7.57;;;;;;;;;;6186165;23;20079;-79
2022/06/05 08:52:46;;;;;;;8.57;7.63;;;;;;;;;;6186210;23;20016;-77
2022/06/05 08:55:18;;;;;;;12.10;7.95;;;;;;;;;;6185982;23;20004;-76
2022/06/05 08:57:47;;;;;;;13.85;9.25;;;;;;;;;;6185718;23;20081;-77
2022/06/05 09:00:19;;;;;;;8.98;7.50;;;;;;;;;;6185912;23;20321;-80
2022/06/05 09:02:45;;;;;;;9.48;7.25;;;;;;;;;;6185636;23;20001;-80
2022/06/05 09:05:21;;;;;;;7.53;5.60;;;;;;;;;;6184314;23;20088;-81
2022/06/05 09:07:52;;;;;;;8.90;7.05;;;;;;;;;;6185709;23;20005;-78
2022/06/05 09:10:24;;;;;;;8.48;6.80;;;;;;;;;;6185819;23;20029;-81
2022/06/05 09:13:19;;;;;;;7.68;6.65;;;;;;;;;;6185820;23;20452;-77
2022/06/05 09:15:51;;;;;;;8.60;5.82;;;;;;;;;;6167263;23;20040;-81
2022/06/05 09:18:21;;;;;;;9.73;6.30;;;;;;;;;;6185391;23;20008;-78
2022/06/05 09:20:51;;;;;;;8.35;6.70;;;;;;;;;;6185902;23;20033;-78
2022/06/05 09:23:22;;;;;;;9.68;6.80;;;;;;;;;;6186219;23;20008;-80
2022/06/05 09:26:07;;;;;;;10.27;5.47;;;;;;;;;;6186161;23;20064;-78
2022/06/05 09:28:35;;;;;;;7.45;5.30;;;;;;;;;;6185364;23;20001;-83
2022/06/05 09:31:19;;;;;;;7.47;4.70;;;;;;;;;;6185506;23;20072;-79
2022/06/05 09:33:46;;;;;;;6.65;5.18;;;;;;;;;;6185462;23;20005;-80
2022/06/05 09:36:15;;;;;;;7.15;3.85;;;;;;;;;;6185705;23;20464;-85
2022/06/05 09:39:05;;;;;;;7.22;3.92;;;;;;;;;;6184078;23;20009;-80
2022/06/05 09:41:49;;;;;;;5.40;4.05;;;;;;;;;;6185172;23;20019;-79
2022/06/05 09:44:24;;;;;;;6.13;3.10;;;;;;;;;;6185380;23;20008;-80
2022/06/05 09:47:13;;;;;;;6.50;3.67;;;;;;;;;;6184886;23;20463;-77
2022/06/05 09:49:39;;;;;;;5.63;3.47;;;;;;;;;;6184797;23;20001;-78
2022/06/05 09:52:11;;;;;;;19.95;6.10;;;;;;;;;;6184976;23;20104;-80
2022/06/05 09:54:40;;;;;;;8.95;4.57;;;;;;;;;;6185295;23;20499;-80
2022/06/05 10:00:14;;;;;;;5.18;4.15;;;;;;;;;;6185335;23;20052;-82
2022/06/05 10:02:42;;;;;;;7.20;4.57;;;;;;;;;;6184980;23;20001;-79
2022/06/05 10:05:27;;;;;;;6.07;4.10;;;;;;;;;;6183743;23;20177;-79
2022/06/05 10:08:04;;;;;;;7.82;4.80;;;;;;;;;;6185222;23;20005;-81
2022/06/05 10:10:40;;;;;;;6.93;6.28;;;;;;;;;;6185254;23;20005;-80
2022/06/05 10:13:13;;;;;;;8.00;4.95;;;;;;;;;;6185203;23;20009;-78
2022/06/05 10:15:46;;;;;;;6.97;4.90;;;;;;;;;;6185137;23;20008;-79
2022/06/05 10:18:12;;;;;;;;;;;;;;;;;;6185464;23;19997;-79
2022/06/05 10:20:57;;;;;;;6.85;4.85;;;;;;;;;;6185039;23;19992;-81
2022/06/05 10:23:42;;;;;;;5.57;4.97;;;;;;;;;;6185405;23;20005;-77
2022/06/05 10:26:20;;;;;;;6.88;5.22;;;;;;;;;;6185127;23;20084;-81
2022/06/05 10:28:47;;;;;;;7.97;4.50;;;;;;;;;;6185275;23;20000;-77
2022/06/05 10:31:23;;;;;;;5.55;3.90;;;;;;;;;;6185035;23;20005;-78
2022/06/05 10:34:07;;;;;;;5.68;4.50;;;;;;;;;;6184868;23;20009;-77
2022/06/05 10:36:45;;;;;;;5.47;4.40;;;;;;;;;;6184999;23;20009;-76
2022/06/05 10:39:13;;;;;;;7.45;4.57;;;;;;;;;;6184657;23;20005;-78
2022/06/05 10:41:48;;;;;;;6.30;4.78;;;;;;;;;;6184723;23;20508;-78
2022/06/05 10:44:33;;;;;;;4.70;4.20;;;;;;;;;;6183892;23;20020;-78
2022/06/05 10:47:17;;;;;;;5.18;3.90;;;;;;;;;;6184633;23;20072;-79
2022/06/05 10:50:02;;;;;;;4.70;3.90;;;;;;;;;;6184806;23;20040;-80
2022/06/05 10:52:34;;;;;;;5.65;4.65;;;;;;;;;;6184714;23;20017;-77
2022/06/05 10:55:00;;;;;;;6.60;4.15;;;;;;;;;;6184544;23;20008;-80
2022/06/05 10:57:30;;;;;;;4.75;4.05;;;;;;;;;;6184615;23;20001;-85
2022/06/05 11:00:15;;;;;;;15.13;4.20;;;;;;;;;;6184849;23;20001;-79
2022/06/05 11:02:47;;;;;;;4.20;3.80;;;;;;;;;;6184300;23;20096;-76
2022/06/05 11:05:32;;;;;;;8.15;3.97;;;;;;;;;;6184876;23;20329;-78
2022/06/05 11:08:17;;;;;;;4.80;4.05;;;;;;;;;;6184926;23;20005;-81
2022/06/05 11:16:41;;;;;;;5.50;3.70;;;;;;;;;;6184594;23;20020;-78
2022/06/05 11:19:08;;;;;;;6.63;5.03;;;;;;;;;;6184681;23;20036;-81
2022/06/05 11:21:34;;;;;;;6.38;5.53;;;;;;;;;;6184380;23;20009;-78
2022/06/05 11:24:01;;;;;;;5.75;4.18;;;;;;;;;;6183124;23;20005;-79
2022/06/05 11:26:33;;;;;;;12.40;4.50;;;;;;;;;;6184503;23;20459;-78
2022/06/05 11:29:05;;;;;;;5.82;3.83;;;;;;;;;;6184893;23;20413;-78
2022/06/05 11:31:50;;;;;;;5.50;3.45;;;;;;;;;;6184133;23;20437;-83
2022/06/05 11:34:16;;;;;;;5.47;3.28;;;;;;;;;;6184255;23;20076;-79
2022/06/05 11:37:01;;;;;;;7.03;6.32;;;;;;;;;;6184348;23;20009;-81
2022/06/05 11:39:37;;;;;;;5.10;3.63;;;;;;;;;;6184468;23;20072;-79
2022/06/05 11:42:06;;;;;;;3.75;3.40;;;;;;;;;;6184618;23;20023;-77
2022/06/05 11:44:37;;;;;;;7.07;3.80;;;;;;;;;;6184275;23;20005;-79
2022/06/05 11:47:08;;;;;;;6.95;3.60;;;;;;;;;;6184560;23;20001;-80
2022/06/05 11:49:34;;;;;;;4.95;3.10;;;;;;;;;;6184193;23;20009;-78
2022/06/05 11:52:18;;;;;;;8.02;3.75;;;;;;;;;;6183935;23;20013;-78
2022/06/05 11:55:03;;;;;;;5.18;3.45;;;;;;;;;;6184221;23;20001;-79
2022/06/05 11:57:38;;;;;;;4.65;3.30;;;;;;;;;;6184060;23;20500;-80
2022/06/05 12:00:23;;;;;;;4.85;4.35;;;;;;;;;;6184067;23;20005;-77
2022/06/05 12:03:09;;;;;;;5.15;3.70;;;;;;;;;;6183886;23;20009;-79
2022/06/05 12:05:54;;;;;;;5.78;4.10;;;;;;;;;;6184035;23;20012;-77
2022/06/05 12:08:39;;;;;;;5.25;4.38;;;;;;;;;;6183882;23;20329;-78
2022/06/05 12:11:08;;;;;;;4.78;4.00;;;;;;;;;;6184375;23;20328;-80
2022/06/05 12:13:40;;;;;;;5.47;3.53;;;;;;;;;;6184277;23;20048;-77
2022/06/05 12:16:06;;;;;;;5.20;3.70;;;;;;;;;;6185896;23;20105;-79
2022/06/05 12:18:36;;;;;;;5.63;3.72;;;;;;;;;;6186078;23;20008;-76
2022/06/05 12:21:06;;;;;;;5.80;3.28;;;;;;;;;;6186186;23;20001;-78
2022/06/05 12:23:51;;;;;;;4.15;3.08;;;;;;;;;;6186282;23;20321;-77
2022/06/05 12:26:23;;;;;;;5.82;3.90;;;;;;;;;;6186398;23;20001;-82
2022/06/05 12:28:53;;;;;;;6.00;3.90;;;;;;;;;;6185691;23;20463;-77
2022/06/05 12:31:19;;;;;;;8.70;3.70;;;;;;;;;;6186140;23;20432;-77
2022/06/05 12:33:56;;;;;;;4.60;3.20;;;;;;;;;;6185461;23;20008;-78
2022/06/05 12:36:26;;;;;;;3.80;3.20;;;;;;;;;;6185840;23;20016;-81
2022/06/05 12:39:12;;;;;;;6.15;3.60;;;;;;;;;;6185833;23;20009;-81
2022/06/05 12:41:54;;;;;;;8.95;4.30;;;;;;;;;;6170860;23;20064;-81
2022/06/05 12:44:25;;;;;;;4.90;3.45;;;;;;;;;;6185242;23;20005;-79
2022/06/05 12:46:52;;;;;;;9.30;4.15;;;;;;;;;;6185753;23;20001;-77
2022/06/05 12:49:28;;;;;;;5.00;3.80;;;;;;;;;;6186210;23;20005;-79
2022/06/05 12:52:13;;;;;;;6.85;4.55;;;;;;;;;;6183707;23;20443;-80
2022/06/05 12:54:44;;;;;;;4.95;2.90;;;;;;;;;;6185584;23;20001;-78
2022/06/05 12:57:14;;;;;;;4.03;3.50;;;;;;;;;;6185767;23;20010;-80
2022/06/05 12:59:46;;;;;;;5.53;3.22;;;;;;;;;;6185612;23;20433;-78
2022/06/05 13:02:15;;;;;;;6.38;3.13;;;;;;;;;;6186016;23;20012;-80
2022/06/05 13:05:00;;;;;;;3.38;2.67;;;;;;;;;;6185590;23;20452;-77
2022/06/05 13:07:45;;;;;;;4.30;2.85;;;;;;;;;;6185728;23;20433;-78
2022/06/05 13:10:29;;;;;;;4.47;3.53;;;;;;;;;;6185500;23;20452;-78
2022/06/05 13:13:03;;;;;;;4.88;3.67;;;;;;;;;;6185239;23;20060;-79
2022/06/05 13:15:31;;;;;;;5.72;3.33;;;;;;;;;;6185461;23;20057;-76
2022/06/05 13:18:01;;;;;;;4.13;2.53;;;;;;;;;;6185559;23;20036;-79
2022/06/05 13:20:32;;;;;;;3.97;2.70;;;;;;;;;;6185327;23;20012;-78
2022/06/05 13:23:30;;;;;;;5.32;2.40;;;;;;;;;;6185909;23;20037;-77
2022/06/05 13:25:56;;;;;;;4.20;2.00;;;;;;;;;;6135398;23;20008;-77
2022/06/05 13:28:27;;;;;;;4.05;2.30;;;;;;;;;;6185434;23;20029;-77
2022/06/05 13:31:00;;;;;;;5.03;2.42;;;;;;;;;;6185344;23;20005;-78
2022/06/05 13:33:26;;;;;;;4.50;2.07;;;;;;;;;;6185555;23;20019;-79
2022/06/05 13:35:52;;;;;;;5.43;2.25;;;;;;;;;;6185824;23;20009;-78
2022/06/05 13:38:37;;;;;;;5.45;3.05;;;;;;;;;;6185436;23;20005;-77
2022/06/05 13:41:03;;;;;;;6.15;2.00;;;;;;;;;;6185563;23;20005;-77
2022/06/05 13:43:33;;;;;;;3.33;1.50;;;;;;;;;;6185542;23;19997;-77
2022/06/05 13:46:10;;;;;;;3.72;1.33;;;;;;;;;;6185627;23;20012;-81
2022/06/05 13:48:43;;;;;;;4.90;1.30;;;;;;;;;;6185074;23;20057;-78
2022/06/05 13:51:15;;;;;;;4.78;2.10;;;;;;;;;;6185217;23;20012;-79
2022/06/05 13:53:45;;;;;;;4.93;2.20;;;;;;;;;;6185227;23;20088;-80
2022/06/05 13:56:16;;;;;;;3.10;1.70;;;;;;;;;;6185071;23;20100;-78
2022/06/05 13:58:46;;;;;;;3.90;1.67;;;;;;;;;;6185590;23;20075;-82
2022/06/05 14:01:15;;;;;;;5.30;1.85;;;;;;;;;;6185194;23;20001;-79
2022/06/05 14:03:46;;;;;;;3.38;1.60;;;;;;;;;;6185120;23;20005;-78
2022/06/05 14:06:19;;;;;;;3.53;1.40;;;;;;;;;;6185026;23;20009;-77
2022/06/05 14:08:49;;;;;;;3.30;1.42;;;;;;;;;;6185201;23;20005;-78
2022/06/05 14:11:19;;;;;;;3.58;1.90;;;;;;;;;;6184749;23;20016;-77
2022/06/05 14:13:49;;;;;;;3.88;1.63;;;;;;;;;;6184941;23;20016;-78
2022/06/05 14:16:16;;;;;;;4.15;2.05;;;;;;;;;;6185073;23;20004;-81
2022/06/05 14:18:45;;;;;;;2.95;2.10;;;;;;;;;;6185084;23;20072;-79
2022/06/05 14:21:19;;;;;;;3.08;1.70;;;;;;;;;;6184768;23;20005;-78
2022/06/05 14:23:46;;;;;;;3.05;1.27;;;;;;;;;;6185429;23;20484;-79
2022/06/05 14:26:13;;;;;;;3.45;1.77;;;;;;;;;;6185413;23;20001;-80
2022/06/05 14:28:40;;;;;;;3.40;1.73;;;;;;;;;;6185498;23;20395;-80
2022/06/05 14:31:25;;;;;;;3.75;1.85;;;;;;;;;;6185605;23;20425;-80
2022/06/05 14:34:01;;;;;;;2.80;1.20;;;;;;;;;;6185102;23;20021;-79
2022/06/05 14:36:50;;;;;;;5.45;1.30;;;;;;;;;;6185259;23;20337;-78
2022/06/05 14:39:35;;;;;;;2.95;1.63;;;;;;;;;;6184912;23;20008;-79
2022/06/05 14:42:20;;;;;;;3.65;1.92;;;;;;;;;;6185256;23;20380;-76
2022/06/05 14:44:54;;;;;;;5.55;2.20;;;;;;;;;;6185145;23;20023;-80
2022/06/05 14:47:29;;;;;;;3.78;2.28;;;;;;;;;;6183892;23;20012;-79
2022/06/05 14:50:00;;;;;;;4.90;2.72;;;;;;;;;;6185217;23;20012;-79
2022/06/05 14:52:35;;;;;;;5.05;2.55;;;;;;;;;;6170057;23;20370;-80
2022/06/05 14:57:52;;;;;;;6.43;3.05;;;;;;;;;;6154902;23;20406;-78
2022/06/05 15:00:21;;;;;;;4.15;3.20;;;;;;;;;;6154607;23;20115;-78
2022/06/05 15:03:05;;;;;;;5.60;3.33;;;;;;;;;;6154764;23;20052;-79
2022/06/05 15:05:33;;;;;;;4.57;2.92;;;;;;;;;;6154957;23;20504;-79
2022/06/05 15:08:08;;;;;;;4.93;2.63;;;;;;;;;;6154502;23;20009;-81
2022/06/05 15:10:39;;;;;;;5.50;2.45;;;;;;;;;;6128750;23;20390;-79
2022/06/05 15:13:24;;;;;;;6.38;2.58;;;;;;;;;;6154740;23;20853;-79
2022/06/05 15:15:57;;;;;;;6.22;2.97;;;;;;;;;;6154852;23;20005;-79
2022/06/05 15:18:24;;;;;;;6.10;2.75;;;;;;;;;;6154559;23;20036;-79